sensor_id;sensor_type;location;lat;lon;timestamp;P1;durP1;ratioP1;P2;durP2;ratioP2
53775;SDS011;44276;49.534;6.378;2022-08-21T00:01:51;7.60;;;2.65;;
53775;SDS011;44276;49.534;6.378;2022-08-21T00:04:20;8.27;;;3.25;;
53775;SDS011;44276;49.534;6.378;2022-08-21T00:06:56;6.78;;;2.47;;
53775;SDS011;44276;49.534;6.378;2022-08-21T00:09:25;5.47;;;2.42;;
53775;SDS011;44276;49.534;6.378;2022-08-21T00:11:53;9.05;;;2.83;;
53775;SDS011;44276;49.534;6.378;2022-08-21T00:14:21;9.07;;;2.53;;
53775;SDS011;44276;49.534;6.378;2022-08-21T00:16:50;5.60;;;2.47;;
53775;SDS011;44276;49.534;6.378;2022-08-21T00:19:22;6.35;;;2.50;;
53775;SDS011;44276;49.534;6.378;2022-08-21T00:21:51;4.45;;;2.05;;
53775;SDS011;44276;49.534;6.378;2022-08-21T00:24:21;9.57;;;3.63;;
53775;SDS011;44276;49.534;6.378;2022-08-21T00:26:51;3.30;;;2.40;;
53775;SDS011;44276;49.534;6.378;2022-08-21T00:29:20;6.68;;;2.33;;
53775;SDS011;44276;49.534;6.378;2022-08-21T00:31:48;9.60;;;2.25;;
53775;SDS011;44276;49.534;6.378;2022-08-21T00:34:16;7.78;;;2.60;;
53775;SDS011;44276;49.534;6.378;2022-08-21T00:36:44;14.15;;;3.10;;
53775;SDS011;44276;49.534;6.378;2022-08-21T00:39:14;7.68;;;2.58;;
53775;SDS011;44276;49.534;6.378;2022-08-21T00:41:43;5.53;;;2.22;;
53775;SDS011;44276;49.534;6.378;2022-08-21T00:44:12;7.07;;;2.30;;
53775;SDS011;44276;49.534;6.378;2022-08-21T00:46:42;5.78;;;2.90;;
53775;SDS011;44276;49.534;6.378;2022-08-21T00:49:11;4.43;;;2.67;;
53775;SDS011;44276;49.534;6.378;2022-08-21T00:51:42;4.80;;;2.55;;
53775;SDS011;44276;49.534;6.378;2022-08-21T00:54:15;12.43;;;2.60;;
53775;SDS011;44276;49.534;6.378;2022-08-21T00:56:48;9.02;;;3.17;;
53775;SDS011;44276;49.534;6.378;2022-08-21T00:59:24;9.57;;;2.95;;
53775;SDS011;44276;49.534;6.378;2022-08-21T01:01:56;5.40;;;2.58;;
53775;SDS011;44276;49.534;6.378;2022-08-21T01:04:24;11.20;;;2.90;;
53775;SDS011;44276;49.534;6.378;2022-08-21T01:06:53;7.78;;;2.22;;
53775;SDS011;44276;49.534;6.378;2022-08-21T01:09:21;10.50;;;3.08;;
53775;SDS011;44276;49.534;6.378;2022-08-21T01:11:51;6.43;;;2.47;;
53775;SDS011;44276;49.534;6.378;2022-08-21T01:14:19;5.88;;;3.15;;
53775;SDS011;44276;49.534;6.378;2022-08-21T01:16:50;5.90;;;3.30;;
53775;SDS011;44276;49.534;6.378;2022-08-21T01:19:20;8.63;;;3.15;;
53775;SDS011;44276;49.534;6.378;2022-08-21T01:21:52;13.40;;;3.05;;
53775;SDS011;44276;49.534;6.378;2022-08-21T01:24:21;5.72;;;2.65;;
53775;SDS011;44276;49.534;6.378;2022-08-21T01:26:49;4.47;;;3.03;;
53775;SDS011;44276;49.534;6.378;2022-08-21T01:29:22;8.98;;;2.97;;
53775;SDS011;44276;49.534;6.378;2022-08-21T01:31:59;6.72;;;2.35;;
53775;SDS011;44276;49.534;6.378;2022-08-21T01:34:35;5.95;;;2.22;;
53775;SDS011;44276;49.534;6.378;2022-08-21T01:37:09;6.00;;;2.75;;
53775;SDS011;44276;49.534;6.378;2022-08-21T01:39:39;7.50;;;2.40;;
53775;SDS011;44276;49.534;6.378;2022-08-21T01:42:08;13.63;;;3.42;;
53775;SDS011;44276;49.534;6.378;2022-08-21T01:44:37;13.02;;;3.70;;
53775;SDS011;44276;49.534;6.378;2022-08-21T01:47:07;7.70;;;3.05;;
53775;SDS011;44276;49.534;6.378;2022-08-21T01:49:39;5.85;;;2.50;;
53775;SDS011;44276;49.534;6.378;2022-08-21T01:52:07;4.70;;;2.53;;
53775;SDS011;44276;49.534;6.378;2022-08-21T01:54:39;5.90;;;2.75;;
53775;SDS011;44276;49.534;6.378;2022-08-21T01:57:08;9.85;;;3.08;;
53775;SDS011;44276;49.534;6.378;2022-08-21T01:59:37;4.28;;;2.92;;
53775;SDS011;44276;49.534;6.378;2022-08-21T02:02:06;9.48;;;3.72;;
53775;SDS011;44276;49.534;6.378;2022-08-21T02:04:34;6.20;;;2.45;;
53775;SDS011;44276;49.534;6.378;2022-08-21T02:07:03;9.15;;;3.45;;
53775;SDS011;44276;49.534;6.378;2022-08-21T02:09:36;6.07;;;3.22;;
53775;SDS011;44276;49.534;6.378;2022-08-21T02:12:05;5.50;;;2.30;;
53775;SDS011;44276;49.534;6.378;2022-08-21T02:14:34;8.20;;;3.00;;
53775;SDS011;44276;49.534;6.378;2022-08-21T02:17:03;9.45;;;3.97;;
53775;SDS011;44276;49.534;6.378;2022-08-21T02:19:35;11.40;;;2.78;;
53775;SDS011;44276;49.534;6.378;2022-08-21T02:22:06;9.57;;;3.08;;
53775;SDS011;44276;49.534;6.378;2022-08-21T02:24:37;8.88;;;3.05;;
53775;SDS011;44276;49.534;6.378;2022-08-21T02:27:19;5.60;;;2.50;;
53775;SDS011;44276;49.534;6.378;2022-08-21T02:29:52;7.45;;;3.75;;
53775;SDS011;44276;49.534;6.378;2022-08-21T02:32:22;6.28;;;3.20;;
53775;SDS011;44276;49.534;6.378;2022-08-21T02:34:52;11.85;;;2.90;;
53775;SDS011;44276;49.534;6.378;2022-08-21T02:37:20;6.85;;;3.08;;
53775;SDS011;44276;49.534;6.378;2022-08-21T02:39:50;8.93;;;3.15;;
53775;SDS011;44276;49.534;6.378;2022-08-21T02:42:18;7.18;;;3.40;;
53775;SDS011;44276;49.534;6.378;2022-08-21T02:44:46;7.78;;;3.45;;
53775;SDS011;44276;49.534;6.378;2022-08-21T02:47:15;11.50;;;3.70;;
53775;SDS011;44276;49.534;6.378;2022-08-21T02:49:43;16.23;;;3.90;;
53775;SDS011;44276;49.534;6.378;2022-08-21T02:52:11;10.80;;;3.60;;
53775;SDS011;44276;49.534;6.378;2022-08-21T02:54:40;13.80;;;3.42;;
53775;SDS011;44276;49.534;6.378;2022-08-21T02:57:10;8.75;;;3.83;;
53775;SDS011;44276;49.534;6.378;2022-08-21T02:59:38;8.82;;;2.95;;
53775;SDS011;44276;49.534;6.378;2022-08-21T03:02:07;7.97;;;3.25;;
53775;SDS011;44276;49.534;6.378;2022-08-21T03:04:35;12.63;;;3.13;;
53775;SDS011;44276;49.534;6.378;2022-08-21T03:07:03;9.63;;;4.32;;
53775;SDS011;44276;49.534;6.378;2022-08-21T03:09:36;10.13;;;2.95;;
53775;SDS011;44276;49.534;6.378;2022-08-21T03:12:17;8.23;;;3.28;;
53775;SDS011;44276;49.534;6.378;2022-08-21T03:14:45;11.10;;;3.33;;
53775;SDS011;44276;49.534;6.378;2022-08-21T03:17:13;8.77;;;3.50;;
53775;SDS011;44276;49.534;6.378;2022-08-21T03:19:41;7.32;;;3.33;;
53775;SDS011;44276;49.534;6.378;2022-08-21T03:22:09;17.63;;;4.50;;
53775;SDS011;44276;49.534;6.378;2022-08-21T03:24:38;7.82;;;3.65;;
53775;SDS011;44276;49.534;6.378;2022-08-21T03:27:09;8.43;;;3.28;;
53775;SDS011;44276;49.534;6.378;2022-08-21T03:29:40;9.52;;;3.85;;
53775;SDS011;44276;49.534;6.378;2022-08-21T03:32:08;8.52;;;3.28;;
53775;SDS011;44276;49.534;6.378;2022-08-21T03:34:37;10.70;;;3.78;;
53775;SDS011;44276;49.534;6.378;2022-08-21T03:37:06;9.90;;;3.40;;
53775;SDS011;44276;49.534;6.378;2022-08-21T03:39:37;10.70;;;4.28;;
53775;SDS011;44276;49.534;6.378;2022-08-21T03:42:08;10.73;;;4.85;;
53775;SDS011;44276;49.534;6.378;2022-08-21T03:44:36;16.13;;;4.15;;
53775;SDS011;44276;49.534;6.378;2022-08-21T03:47:07;10.70;;;5.32;;
53775;SDS011;44276;49.534;6.378;2022-08-21T03:49:36;9.05;;;5.70;;
53775;SDS011;44276;49.534;6.378;2022-08-21T03:52:04;8.30;;;4.25;;
53775;SDS011;44276;49.534;6.378;2022-08-21T03:54:32;9.68;;;5.38;;
53775;SDS011;44276;49.534;6.378;2022-08-21T03:57:01;10.73;;;4.20;;
53775;SDS011;44276;49.534;6.378;2022-08-21T03:59:29;12.38;;;5.65;;
53775;SDS011;44276;49.534;6.378;2022-08-21T04:01:58;9.25;;;4.55;;
53775;SDS011;44276;49.534;6.378;2022-08-21T04:04:31;7.55;;;4.43;;
53775;SDS011;44276;49.534;6.378;2022-08-21T04:07:00;9.18;;;5.05;;
53775;SDS011;44276;49.534;6.378;2022-08-21T04:09:31;7.47;;;4.20;;
53775;SDS011;44276;49.534;6.378;2022-08-21T04:11:59;7.95;;;4.30;;
53775;SDS011;44276;49.534;6.378;2022-08-21T04:14:28;11.93;;;4.88;;
53775;SDS011;44276;49.534;6.378;2022-08-21T04:16:56;15.40;;;4.93;;
53775;SDS011;44276;49.534;6.378;2022-08-21T04:19:24;15.80;;;4.10;;
53775;SDS011;44276;49.534;6.378;2022-08-21T04:21:54;10.10;;;4.25;;
53775;SDS011;44276;49.534;6.378;2022-08-21T04:24:22;14.68;;;4.80;;
53775;SDS011;44276;49.534;6.378;2022-08-21T04:26:55;17.90;;;4.82;;
53775;SDS011;44276;49.534;6.378;2022-08-21T04:29:23;8.30;;;3.85;;
53775;SDS011;44276;49.534;6.378;2022-08-21T04:31:51;13.02;;;4.90;;
53775;SDS011;44276;49.534;6.378;2022-08-21T04:34:19;8.48;;;4.28;;
53775;SDS011;44276;49.534;6.378;2022-08-21T04:36:47;6.60;;;3.45;;
53775;SDS011;44276;49.534;6.378;2022-08-21T04:39:17;12.63;;;5.40;;
53775;SDS011;44276;49.534;6.378;2022-08-21T04:41:45;13.95;;;4.75;;
53775;SDS011;44276;49.534;6.378;2022-08-21T04:44:13;18.50;;;4.97;;
53775;SDS011;44276;49.534;6.378;2022-08-21T04:46:41;14.90;;;7.05;;
53775;SDS011;44276;49.534;6.378;2022-08-21T04:49:09;11.52;;;4.65;;
53775;SDS011;44276;49.534;6.378;2022-08-21T04:51:38;9.23;;;5.28;;
53775;SDS011;44276;49.534;6.378;2022-08-21T04:54:08;12.60;;;4.72;;
53775;SDS011;44276;49.534;6.378;2022-08-21T04:56:44;10.25;;;4.45;;
53775;SDS011;44276;49.534;6.378;2022-08-21T04:59:17;13.50;;;5.00;;
53775;SDS011;44276;49.534;6.378;2022-08-21T05:01:49;8.13;;;4.55;;
53775;SDS011;44276;49.534;6.378;2022-08-21T05:04:21;13.30;;;4.60;;
53775;SDS011;44276;49.534;6.378;2022-08-21T05:06:54;16.85;;;4.55;;
53775;SDS011;44276;49.534;6.378;2022-08-21T05:09:29;10.07;;;5.38;;
53775;SDS011;44276;49.534;6.378;2022-08-21T05:11:59;14.35;;;4.15;;
53775;SDS011;44276;49.534;6.378;2022-08-21T05:14:29;9.95;;;3.83;;
53775;SDS011;44276;49.534;6.378;2022-08-21T05:16:57;8.95;;;4.18;;
53775;SDS011;44276;49.534;6.378;2022-08-21T05:19:25;14.32;;;4.55;;
53775;SDS011;44276;49.534;6.378;2022-08-21T05:21:54;10.52;;;3.55;;
53775;SDS011;44276;49.534;6.378;2022-08-21T05:24:22;6.88;;;4.45;;
53775;SDS011;44276;49.534;6.378;2022-08-21T05:26:50;4.93;;;3.10;;
53775;SDS011;44276;49.534;6.378;2022-08-21T05:29:20;5.30;;;2.22;;
53775;SDS011;44276;49.534;6.378;2022-08-21T05:31:49;10.45;;;3.17;;
53775;SDS011;44276;49.534;6.378;2022-08-21T05:34:18;5.90;;;2.63;;
53775;SDS011;44276;49.534;6.378;2022-08-21T05:36:48;5.88;;;1.85;;
53775;SDS011;44276;49.534;6.378;2022-08-21T05:39:16;4.78;;;1.90;;
53775;SDS011;44276;49.534;6.378;2022-08-21T05:41:45;7.00;;;2.67;;
53775;SDS011;44276;49.534;6.378;2022-08-21T05:44:13;3.40;;;1.98;;
53775;SDS011;44276;49.534;6.378;2022-08-21T05:46:43;9.35;;;1.92;;
53775;SDS011;44276;49.534;6.378;2022-08-21T05:49:11;7.97;;;3.20;;
53775;SDS011;44276;49.534;6.378;2022-08-21T05:51:39;6.22;;;1.80;;
53775;SDS011;44276;49.534;6.378;2022-08-21T05:54:09;6.60;;;1.85;;
53775;SDS011;44276;49.534;6.378;2022-08-21T05:56:37;1.70;;;1.10;;
53775;SDS011;44276;49.534;6.378;2022-08-21T05:59:05;5.15;;;2.17;;
53775;SDS011;44276;49.534;6.378;2022-08-21T06:01:34;4.30;;;1.75;;
53775;SDS011;44276;49.534;6.378;2022-08-21T06:04:04;4.45;;;1.80;;
53775;SDS011;44276;49.534;6.378;2022-08-21T06:06:33;5.07;;;1.88;;
53775;SDS011;44276;49.534;6.378;2022-08-21T06:09:02;4.38;;;2.05;;
53775;SDS011;44276;49.534;6.378;2022-08-21T06:11:31;4.82;;;1.83;;
53775;SDS011;44276;49.534;6.378;2022-08-21T06:14:00;4.03;;;1.98;;
53775;SDS011;44276;49.534;6.378;2022-08-21T06:16:29;6.88;;;2.13;;
53775;SDS011;44276;49.534;6.378;2022-08-21T06:18:57;6.78;;;2.13;;
53775;SDS011;44276;49.534;6.378;2022-08-21T06:21:29;3.55;;;1.75;;
53775;SDS011;44276;49.534;6.378;2022-08-21T06:23:58;4.30;;;2.00;;
53775;SDS011;44276;49.534;6.378;2022-08-21T06:26:26;7.75;;;2.38;;
53775;SDS011;44276;49.534;6.378;2022-08-21T06:28:55;3.42;;;1.88;;
53775;SDS011;44276;49.534;6.378;2022-08-21T06:31:24;4.10;;;1.60;;
53775;SDS011;44276;49.534;6.378;2022-08-21T06:33:54;5.55;;;1.75;;
53775;SDS011;44276;49.534;6.378;2022-08-21T06:36:24;3.28;;;2.00;;
53775;SDS011;44276;49.534;6.378;2022-08-21T06:38:53;6.65;;;1.83;;
53775;SDS011;44276;49.534;6.378;2022-08-21T06:41:23;4.80;;;2.05;;
53775;SDS011;44276;49.534;6.378;2022-08-21T06:43:52;5.03;;;2.33;;
53775;SDS011;44276;49.534;6.378;2022-08-21T06:46:23;11.85;;;2.15;;
53775;SDS011;44276;49.534;6.378;2022-08-21T06:48:53;5.45;;;1.80;;
53775;SDS011;44276;49.534;6.378;2022-08-21T06:51:22;8.05;;;2.65;;
53775;SDS011;44276;49.534;6.378;2022-08-21T06:53:53;7.32;;;2.83;;
53775;SDS011;44276;49.534;6.378;2022-08-21T06:56:24;4.22;;;1.90;;
53775;SDS011;44276;49.534;6.378;2022-08-21T06:58:52;5.75;;;2.20;;
53775;SDS011;44276;49.534;6.378;2022-08-21T07:01:21;5.90;;;2.90;;
53775;SDS011;44276;49.534;6.378;2022-08-21T07:03:55;6.25;;;2.40;;
53775;SDS011;44276;49.534;6.378;2022-08-21T07:06:23;5.63;;;1.80;;
53775;SDS011;44276;49.534;6.378;2022-08-21T07:08:53;9.77;;;2.90;;
53775;SDS011;44276;49.534;6.378;2022-08-21T07:11:24;4.50;;;2.35;;
53775;SDS011;44276;49.534;6.378;2022-08-21T07:13:53;8.13;;;2.25;;
53775;SDS011;44276;49.534;6.378;2022-08-21T07:16:22;5.25;;;1.83;;
53775;SDS011;44276;49.534;6.378;2022-08-21T07:18:51;7.28;;;1.80;;
53775;SDS011;44276;49.534;6.378;2022-08-21T07:21:19;8.07;;;2.78;;
53775;SDS011;44276;49.534;6.378;2022-08-21T07:23:51;5.45;;;2.50;;
53775;SDS011;44276;49.534;6.378;2022-08-21T07:26:22;3.30;;;1.42;;
53775;SDS011;44276;49.534;6.378;2022-08-21T07:28:52;7.10;;;1.92;;
53775;SDS011;44276;49.534;6.378;2022-08-21T07:31:22;3.53;;;1.50;;
53775;SDS011;44276;49.534;6.378;2022-08-21T07:33:52;5.38;;;2.50;;
53775;SDS011;44276;49.534;6.378;2022-08-21T07:36:21;6.82;;;2.25;;
53775;SDS011;44276;49.534;6.378;2022-08-21T07:38:50;4.68;;;1.65;;
53775;SDS011;44276;49.534;6.378;2022-08-21T07:41:20;7.50;;;2.22;;
53775;SDS011;44276;49.534;6.378;2022-08-21T07:43:52;5.13;;;2.38;;
53775;SDS011;44276;49.534;6.378;2022-08-21T07:46:20;6.00;;;2.20;;
53775;SDS011;44276;49.534;6.378;2022-08-21T07:48:48;7.07;;;1.50;;
53775;SDS011;44276;49.534;6.378;2022-08-21T07:51:19;6.00;;;2.13;;
53775;SDS011;44276;49.534;6.378;2022-08-21T07:53:53;4.57;;;2.13;;
53775;SDS011;44276;49.534;6.378;2022-08-21T07:56:26;6.65;;;1.85;;
53775;SDS011;44276;49.534;6.378;2022-08-21T07:58:57;2.88;;;1.58;;
53775;SDS011;44276;49.534;6.378;2022-08-21T08:01:25;6.25;;;1.98;;
53775;SDS011;44276;49.534;6.378;2022-08-21T08:03:53;17.70;;;2.90;;
53775;SDS011;44276;49.534;6.378;2022-08-21T08:06:22;4.57;;;1.95;;
53775;SDS011;44276;49.534;6.378;2022-08-21T08:08:52;5.90;;;1.90;;
53775;SDS011;44276;49.534;6.378;2022-08-21T08:11:20;7.78;;;2.30;;
53775;SDS011;44276;49.534;6.378;2022-08-21T08:13:50;4.05;;;1.23;;
53775;SDS011;44276;49.534;6.378;2022-08-21T08:16:20;4.18;;;1.30;;
53775;SDS011;44276;49.534;6.378;2022-08-21T08:18:48;4.68;;;1.70;;
53775;SDS011;44276;49.534;6.378;2022-08-21T08:21:17;17.80;;;1.65;;
53775;SDS011;44276;49.534;6.378;2022-08-21T08:23:47;4.68;;;1.80;;
53775;SDS011;44276;49.534;6.378;2022-08-21T08:26:15;7.07;;;2.58;;
53775;SDS011;44276;49.534;6.378;2022-08-21T08:28:43;5.55;;;2.08;;
53775;SDS011;44276;49.534;6.378;2022-08-21T08:31:14;5.43;;;2.28;;
53775;SDS011;44276;49.534;6.378;2022-08-21T08:33:43;3.88;;;1.90;;
53775;SDS011;44276;49.534;6.378;2022-08-21T08:36:14;4.93;;;2.50;;
53775;SDS011;44276;49.534;6.378;2022-08-21T08:38:45;4.90;;;2.17;;
53775;SDS011;44276;49.534;6.378;2022-08-21T08:41:16;6.82;;;3.85;;
53775;SDS011;44276;49.534;6.378;2022-08-21T08:43:49;7.10;;;2.72;;
53775;SDS011;44276;49.534;6.378;2022-08-21T08:46:25;7.07;;;1.92;;
53775;SDS011;44276;49.534;6.378;2022-08-21T08:49:04;5.45;;;2.30;;
53775;SDS011;44276;49.534;6.378;2022-08-21T08:51:43;4.40;;;1.85;;
53775;SDS011;44276;49.534;6.378;2022-08-21T08:54:19;6.35;;;1.98;;
53775;SDS011;44276;49.534;6.378;2022-08-21T08:56:57;4.13;;;1.90;;
53775;SDS011;44276;49.534;6.378;2022-08-21T08:59:30;9.68;;;2.35;;
53775;SDS011;44276;49.534;6.378;2022-08-21T09:02:10;2.85;;;1.77;;
53775;SDS011;44276;49.534;6.378;2022-08-21T09:04:41;4.57;;;1.98;;
53775;SDS011;44276;49.534;6.378;2022-08-21T09:07:16;5.25;;;1.92;;
53775;SDS011;44276;49.534;6.378;2022-08-21T09:10:04;4.93;;;1.63;;
53775;SDS011;44276;49.534;6.378;2022-08-21T09:12:45;3.85;;;1.45;;
53775;SDS011;44276;49.534;6.378;2022-08-21T09:15:27;3.17;;;1.63;;
53775;SDS011;44276;49.534;6.378;2022-08-21T09:18:09;4.28;;;1.25;;
53775;SDS011;44276;49.534;6.378;2022-08-21T09:20:56;3.78;;;1.17;;
53775;SDS011;44276;49.534;6.378;2022-08-21T09:23:40;4.03;;;1.30;;
53775;SDS011;44276;49.534;6.378;2022-08-21T09:26:22;6.55;;;2.85;;
53775;SDS011;44276;49.534;6.378;2022-08-21T09:28:54;4.85;;;1.30;;
53775;SDS011;44276;49.534;6.378;2022-08-21T09:31:27;3.47;;;1.13;;
53775;SDS011;44276;49.534;6.378;2022-08-21T09:34:00;5.07;;;1.77;;
53775;SDS011;44276;49.534;6.378;2022-08-21T09:36:37;4.68;;;1.58;;
53775;SDS011;44276;49.534;6.378;2022-08-21T09:39:10;4.85;;;1.83;;
53775;SDS011;44276;49.534;6.378;2022-08-21T09:41:41;4.85;;;2.20;;
53775;SDS011;44276;49.534;6.378;2022-08-21T09:44:09;7.75;;;2.13;;
53775;SDS011;44276;49.534;6.378;2022-08-21T09:46:37;5.60;;;1.38;;
53775;SDS011;44276;49.534;6.378;2022-08-21T09:49:27;6.63;;;2.13;;
53775;SDS011;44276;49.534;6.378;2022-08-21T09:51:57;7.03;;;2.20;;
53775;SDS011;44276;49.534;6.378;2022-08-21T09:54:27;5.43;;;1.40;;
53775;SDS011;44276;49.534;6.378;2022-08-21T09:57:00;5.65;;;1.55;;
53775;SDS011;44276;49.534;6.378;2022-08-21T10:02:52;5.25;;;1.67;;
53775;SDS011;44276;49.534;6.378;2022-08-21T10:05:23;6.60;;;1.40;;
53775;SDS011;44276;49.534;6.378;2022-08-21T10:07:54;6.55;;;1.77;;
53775;SDS011;44276;49.534;6.378;2022-08-21T10:10:23;5.88;;;1.50;;
53775;SDS011;44276;49.534;6.378;2022-08-21T10:12:58;2.85;;;1.60;;
53775;SDS011;44276;49.534;6.378;2022-08-21T10:15:53;6.07;;;1.65;;
53775;SDS011;44276;49.534;6.378;2022-08-21T10:18:41;6.35;;;2.22;;
53775;SDS011;44276;49.534;6.378;2022-08-21T10:21:17;2.80;;;1.35;;
53775;SDS011;44276;49.534;6.378;2022-08-21T10:24:00;5.88;;;2.13;;
53775;SDS011;44276;49.534;6.378;2022-08-21T10:26:58;4.28;;;2.10;;
53775;SDS011;44276;49.534;6.378;2022-08-21T10:29:46;4.50;;;1.63;;
53775;SDS011;44276;49.534;6.378;2022-08-21T10:32:29;5.38;;;1.52;;
53775;SDS011;44276;49.534;6.378;2022-08-21T10:35:17;3.88;;;1.63;;
53775;SDS011;44276;49.534;6.378;2022-08-21T10:38:02;3.03;;;1.50;;
53775;SDS011;44276;49.534;6.378;2022-08-21T10:41:22;4.57;;;1.48;;
53775;SDS011;44276;49.534;6.378;2022-08-21T10:44:09;6.82;;;2.20;;
53775;SDS011;44276;49.534;6.378;2022-08-21T10:46:54;5.28;;;1.77;;
53775;SDS011;44276;49.534;6.378;2022-08-21T10:49:31;7.15;;;1.75;;
53775;SDS011;44276;49.534;6.378;2022-08-21T10:52:11;5.97;;;1.42;;
53775;SDS011;44276;49.534;6.378;2022-08-21T10:55:21;3.40;;;1.42;;
53775;SDS011;44276;49.534;6.378;2022-08-21T10:57:56;7.53;;;2.72;;
53775;SDS011;44276;49.534;6.378;2022-08-21T11:00:30;3.88;;;1.88;;
53775;SDS011;44276;49.534;6.378;2022-08-21T11:03:07;4.07;;;1.35;;
53775;SDS011;44276;49.534;6.378;2022-08-21T11:05:44;5.25;;;1.42;;
53775;SDS011;44276;49.534;6.378;2022-08-21T11:08:21;3.75;;;1.33;;
53775;SDS011;44276;49.534;6.378;2022-08-21T11:10:59;6.13;;;1.67;;
53775;SDS011;44276;49.534;6.378;2022-08-21T11:13:35;5.03;;;1.45;;
53775;SDS011;44276;49.534;6.378;2022-08-21T11:16:11;5.63;;;1.45;;
53775;SDS011;44276;49.534;6.378;2022-08-21T11:18:50;4.05;;;1.60;;
53775;SDS011;44276;49.534;6.378;2022-08-21T11:21:29;5.15;;;1.45;;
53775;SDS011;44276;49.534;6.378;2022-08-21T11:24:12;6.28;;;1.75;;
53775;SDS011;44276;49.534;6.378;2022-08-21T11:26:54;3.97;;;1.30;;
53775;SDS011;44276;49.534;6.378;2022-08-21T11:29:33;9.48;;;1.70;;
53775;SDS011;44276;49.534;6.378;2022-08-21T11:32:10;4.80;;;1.67;;
53775;SDS011;44276;49.534;6.378;2022-08-21T11:35:01;11.02;;;2.17;;
53775;SDS011;44276;49.534;6.378;2022-08-21T11:37:45;6.75;;;2.38;;
53775;SDS011;44276;49.534;6.378;2022-08-21T11:40:33;5.18;;;1.63;;
53775;SDS011;44276;49.534;6.378;2022-08-21T11:43:21;3.42;;;1.48;;
53775;SDS011;44276;49.534;6.378;2022-08-21T11:46:03;4.90;;;1.60;;
53775;SDS011;44276;49.534;6.378;2022-08-21T11:48:51;3.00;;;1.38;;
53775;SDS011;44276;49.534;6.378;2022-08-21T11:51:38;3.50;;;1.75;;
53775;SDS011;44276;49.534;6.378;2022-08-21T11:54:16;3.58;;;1.30;;
53775;SDS011;44276;49.534;6.378;2022-08-21T11:56:55;4.07;;;1.95;;
53775;SDS011;44276;49.534;6.378;2022-08-21T11:59:35;3.08;;;1.20;;
53775;SDS011;44276;49.534;6.378;2022-08-21T12:04:45;8.45;;;1.65;;
53775;SDS011;44276;49.534;6.378;2022-08-21T12:07:17;6.70;;;1.50;;
53775;SDS011;44276;49.534;6.378;2022-08-21T12:10:04;4.53;;;1.73;;
53775;SDS011;44276;49.534;6.378;2022-08-21T12:12:38;6.05;;;1.73;;
53775;SDS011;44276;49.534;6.378;2022-08-21T12:15:17;4.90;;;1.35;;
53775;SDS011;44276;49.534;6.378;2022-08-21T12:17:55;3.65;;;1.35;;
53775;SDS011;44276;49.534;6.378;2022-08-21T12:20:38;3.13;;;1.50;;
53775;SDS011;44276;49.534;6.378;2022-08-21T12:23:18;3.65;;;1.23;;
53775;SDS011;44276;49.534;6.378;2022-08-21T12:26:10;2.70;;;1.35;;
53775;SDS011;44276;49.534;6.378;2022-08-21T12:28:49;3.60;;;1.33;;
53775;SDS011;44276;49.534;6.378;2022-08-21T12:31:23;5.28;;;1.30;;
53775;SDS011;44276;49.534;6.378;2022-08-21T12:33:54;4.03;;;1.95;;
53775;SDS011;44276;49.534;6.378;2022-08-21T12:36:38;3.50;;;1.25;;
53775;SDS011;44276;49.534;6.378;2022-08-21T12:39:15;5.75;;;1.10;;
53775;SDS011;44276;49.534;6.378;2022-08-21T12:41:53;3.97;;;1.73;;
53775;SDS011;44276;49.534;6.378;2022-08-21T12:44:31;4.03;;;1.92;;
53775;SDS011;44276;49.534;6.378;2022-08-21T12:47:14;3.55;;;1.27;;
53775;SDS011;44276;49.534;6.378;2022-08-21T12:49:53;4.05;;;1.15;;
53775;SDS011;44276;49.534;6.378;2022-08-21T12:52:30;6.63;;;2.20;;
53775;SDS011;44276;49.534;6.378;2022-08-21T12:55:05;5.38;;;1.30;;
53775;SDS011;44276;49.534;6.378;2022-08-21T12:57:39;5.32;;;1.40;;
53775;SDS011;44276;49.534;6.378;2022-08-21T13:00:11;4.63;;;1.27;;
53775;SDS011;44276;49.534;6.378;2022-08-21T13:02:45;7.20;;;1.60;;
53775;SDS011;44276;49.534;6.378;2022-08-21T13:05:19;4.23;;;1.50;;
53775;SDS011;44276;49.534;6.378;2022-08-21T13:07:57;2.88;;;1.10;;
53775;SDS011;44276;49.534;6.378;2022-08-21T13:10:30;3.65;;;1.40;;
53775;SDS011;44276;49.534;6.378;2022-08-21T13:13:02;4.60;;;1.63;;
53775;SDS011;44276;49.534;6.378;2022-08-21T13:15:38;3.83;;;1.20;;
53775;SDS011;44276;49.534;6.378;2022-08-21T13:18:21;5.57;;;1.27;;
53775;SDS011;44276;49.534;6.378;2022-08-21T13:20:51;4.75;;;1.13;;
53775;SDS011;44276;49.534;6.378;2022-08-21T13:23:32;4.43;;;1.25;;
53775;SDS011;44276;49.534;6.378;2022-08-21T13:26:02;3.28;;;1.02;;
53775;SDS011;44276;49.534;6.378;2022-08-21T13:28:44;3.25;;;1.35;;
53775;SDS011;44276;49.534;6.378;2022-08-21T13:31:16;3.58;;;1.65;;
53775;SDS011;44276;49.534;6.378;2022-08-21T13:33:51;3.90;;;1.55;;
53775;SDS011;44276;49.534;6.378;2022-08-21T13:36:24;4.97;;;1.17;;
53775;SDS011;44276;49.534;6.378;2022-08-21T13:38:58;6.63;;;1.25;;
53775;SDS011;44276;49.534;6.378;2022-08-21T13:41:29;5.43;;;1.50;;
53775;SDS011;44276;49.534;6.378;2022-08-21T13:44:02;3.30;;;1.05;;
53775;SDS011;44276;49.534;6.378;2022-08-21T13:46:33;4.72;;;1.23;;
53775;SDS011;44276;49.534;6.378;2022-08-21T13:49:05;3.95;;;1.23;;
53775;SDS011;44276;49.534;6.378;2022-08-21T13:51:36;4.35;;;1.17;;
53775;SDS011;44276;49.534;6.378;2022-08-21T13:54:13;4.90;;;1.35;;
53775;SDS011;44276;49.534;6.378;2022-08-21T13:56:48;4.57;;;1.50;;
53775;SDS011;44276;49.534;6.378;2022-08-21T13:59:26;4.90;;;1.48;;
53775;SDS011;44276;49.534;6.378;2022-08-21T14:01:58;8.52;;;1.52;;
53775;SDS011;44276;49.534;6.378;2022-08-21T14:04:37;4.05;;;0.95;;
53775;SDS011;44276;49.534;6.378;2022-08-21T14:07:19;6.13;;;1.45;;
53775;SDS011;44276;49.534;6.378;2022-08-21T14:09:54;2.58;;;1.63;;
53775;SDS011;44276;49.534;6.378;2022-08-21T14:12:24;2.67;;;1.20;;
53775;SDS011;44276;49.534;6.378;2022-08-21T14:15:02;3.67;;;1.42;;
53775;SDS011;44276;49.534;6.378;2022-08-21T14:17:34;3.53;;;1.25;;
53775;SDS011;44276;49.534;6.378;2022-08-21T14:20:08;6.60;;;1.58;;
53775;SDS011;44276;49.534;6.378;2022-08-21T14:22:41;6.40;;;1.90;;
53775;SDS011;44276;49.534;6.378;2022-08-21T14:25:14;3.15;;;1.45;;
53775;SDS011;44276;49.534;6.378;2022-08-21T14:27:57;2.05;;;1.10;;
53775;SDS011;44276;49.534;6.378;2022-08-21T14:30:47;7.50;;;1.90;;
53775;SDS011;44276;49.534;6.378;2022-08-21T14:33:21;3.78;;;1.50;;
53775;SDS011;44276;49.534;6.378;2022-08-21T14:35:55;5.77;;;1.77;;
53775;SDS011;44276;49.534;6.378;2022-08-21T14:38:25;5.15;;;1.40;;
53775;SDS011;44276;49.534;6.378;2022-08-21T14:40:56;3.67;;;1.20;;
53775;SDS011;44276;49.534;6.378;2022-08-21T14:43:27;5.43;;;1.38;;
53775;SDS011;44276;49.534;6.378;2022-08-21T14:45:56;5.15;;;1.40;;
53775;SDS011;44276;49.534;6.378;2022-08-21T14:48:27;3.75;;;1.70;;
53775;SDS011;44276;49.534;6.378;2022-08-21T14:50:57;3.65;;;1.33;;
53775;SDS011;44276;49.534;6.378;2022-08-21T14:53:26;3.83;;;1.33;;
53775;SDS011;44276;49.534;6.378;2022-08-21T14:55:54;4.72;;;1.30;;
53775;SDS011;44276;49.534;6.378;2022-08-21T14:58:35;4.38;;;1.42;;
53775;SDS011;44276;49.534;6.378;2022-08-21T15:01:09;3.47;;;0.95;;
53775;SDS011;44276;49.534;6.378;2022-08-21T15:03:41;3.97;;;1.73;;
53775;SDS011;44276;49.534;6.378;2022-08-21T15:06:10;5.22;;;1.65;;
53775;SDS011;44276;49.534;6.378;2022-08-21T15:08:39;5.80;;;0.93;;
53775;SDS011;44276;49.534;6.378;2022-08-21T15:11:07;5.97;;;2.35;;
53775;SDS011;44276;49.534;6.378;2022-08-21T15:14:00;4.78;;;1.85;;
53775;SDS011;44276;49.534;6.378;2022-08-21T15:16:34;5.53;;;1.73;;
53775;SDS011;44276;49.534;6.378;2022-08-21T15:19:03;3.00;;;0.95;;
53775;SDS011;44276;49.534;6.378;2022-08-21T15:21:32;3.90;;;1.02;;
53775;SDS011;44276;49.534;6.378;2022-08-21T15:24:01;2.63;;;1.30;;
53775;SDS011;44276;49.534;6.378;2022-08-21T15:26:29;4.32;;;1.10;;